createdAt,value
2017-07-28T00:00:20.301Z,0
2017-07-28T00:01:21.100Z,0
2017-07-28T00:02:20.978Z,0
2017-07-28T00:03:20.836Z,0
2017-07-28T00:04:21.059Z,0
2017-07-28T00:05:20.659Z,0
2017-07-28T00:06:20.667Z,0
2017-07-28T00:07:20.735Z,0
2017-07-28T00:08:20.970Z,0
2017-07-28T00:09:20.879Z,0
2017-07-28T00:10:20.901Z,0
2017-07-28T00:11:20.963Z,0
2017-07-28T00:12:20.457Z,0
2017-07-28T00:13:20.892Z,0
2017-07-28T00:14:21.090Z,0
2017-07-28T00:15:20.811Z,0
2017-07-28T00:16:21.043Z,0
2017-07-28T00:17:20.722Z,0
2017-07-28T00:18:21.017Z,0
2017-07-28T00:19:20.972Z,0
2017-07-28T00:20:21.010Z,0
2017-07-28T00:21:20.742Z,0
2017-07-28T00:22:20.701Z,0
2017-07-28T00:23:20.540Z,0
2017-07-28T00:24:21.048Z,0
2017-07-28T00:25:20.864Z,0
2017-07-28T00:26:20.953Z,0
2017-07-28T00:27:20.732Z,0
2017-07-28T00:28:20.473Z,0
2017-07-28T00:29:20.812Z,0
2017-07-28T00:30:20.690Z,0
2017-07-28T00:31:20.586Z,0
2017-07-28T00:32:20.894Z,0
2017-07-28T00:33:20.666Z,0
2017-07-28T00:34:20.725Z,0
2017-07-28T00:35:20.650Z,0
2017-07-28T00:36:20.612Z,0
2017-07-28T00:37:20.456Z,0
2017-07-28T00:38:20.586Z,0
2017-07-28T00:39:20.542Z,0
2017-07-28T00:40:20.594Z,0
2017-07-28T00:41:20.583Z,0
2017-07-28T00:42:20.522Z,0
2017-07-28T00:43:20.545Z,0
2017-07-28T00:44:20.382Z,0
2017-07-28T00:45:20.557Z,0
2017-07-28T00:46:19.827Z,0
2017-07-28T00:47:19.939Z,0
2017-07-28T00:48:20.457Z,0
2017-07-28T00:49:20.451Z,0
2017-07-28T00:50:20.399Z,0
2017-07-28T00:51:20.398Z,0
2017-07-28T00:52:20.108Z,0
2017-07-28T00:53:20.372Z,0
2017-07-28T00:54:20.325Z,0
2017-07-28T00:55:20.025Z,0
2017-07-28T00:56:18.349Z,0
2017-07-28T00:57:18.382Z,0
2017-07-28T00:58:18.613Z,0
2017-07-28T00:59:18.645Z,0
2017-07-28T01:00:18.596Z,0
2017-07-28T01:01:18.311Z,0
2017-07-28T01:02:18.542Z,0
2017-07-28T01:03:18.511Z,0
2017-07-28T01:04:18.483Z,0
2017-07-28T01:05:18.198Z,0
2017-07-28T01:06:18.435Z,0
2017-07-28T01:07:18.417Z,0
2017-07-28T01:08:18.113Z,0
2017-07-28T01:09:18.171Z,0
2017-07-28T01:10:18.036Z,0
2017-07-28T01:11:18.032Z,0
2017-07-28T01:12:18.318Z,0
2017-07-28T01:13:18.350Z,0
2017-07-28T01:14:18.535Z,0
2017-07-28T01:15:17.939Z,0
2017-07-28T01:16:17.920Z,0
2017-07-28T01:17:18.301Z,0
2017-07-28T01:18:18.180Z,0
2017-07-28T01:19:18.173Z,0
2017-07-28T01:20:18.149Z,0
2017-07-28T01:21:18.241Z,0
2017-07-28T01:22:18.097Z,0
2017-07-28T01:23:17.826Z,0
2017-07-28T01:24:18.055Z,0
2017-07-28T01:25:18.342Z,0
2017-07-28T01:26:17.766Z,0
2017-07-28T01:27:17.999Z,0
2017-07-28T01:28:17.974Z,0
2017-07-28T01:29:17.952Z,0
2017-07-28T01:30:17.933Z,0
2017-07-28T01:31:17.916Z,0
2017-07-28T01:32:17.948Z,0
2017-07-28T01:33:17.886Z,0
2017-07-28T01:34:17.560Z,0
2017-07-28T01:35:17.844Z,0
2017-07-28T01:36:18.067Z,0
2017-07-28T01:37:17.807Z,0
2017-07-28T01:38:17.464Z,0
2017-07-28T01:39:17.759Z,0
2017-07-28T01:40:17.790Z,0
2017-07-28T01:41:17.710Z,0
2017-07-28T01:42:17.989Z,0
2017-07-28T01:43:17.658Z,0
2017-07-28T01:44:17.655Z,0
2017-07-28T01:45:17.679Z,0
2017-07-28T01:46:17.603Z,0
2017-07-28T01:47:17.581Z,0
2017-07-28T01:48:18.652Z,0
2017-07-28T01:49:17.542Z,0
2017-07-28T01:50:17.515Z,0
2017-07-28T01:51:17.502Z,0
2017-07-28T01:52:17.537Z,0
2017-07-28T01:53:17.461Z,0
2017-07-28T01:54:17.444Z,0
2017-07-28T01:55:17.409Z,0
2017-07-28T01:56:17.403Z,0
2017-07-28T01:57:17.384Z,0
2017-07-28T01:58:18.417Z,0
2017-07-28T01:59:19.160Z,0
2017-07-28T02:00:18.946Z,0
2017-07-28T02:01:18.973Z,0
2017-07-28T02:02:18.929Z,0
2017-07-28T02:03:18.901Z,0
2017-07-28T02:04:18.930Z,0
2017-07-28T02:05:18.866Z,0
2017-07-28T02:06:19.015Z,0
2017-07-28T02:07:18.732Z,0
2017-07-28T02:08:18.701Z,0
2017-07-28T02:09:18.756Z,0
2017-07-28T02:10:18.743Z,0
2017-07-28T02:11:18.666Z,0
2017-07-28T02:12:18.696Z,0
2017-07-28T02:13:18.684Z,0
2017-07-28T02:14:18.644Z,0
2017-07-28T02:15:18.174Z,0
2017-07-28T02:16:18.136Z,0
2017-07-28T02:17:18.576Z,0
2017-07-28T02:18:18.523Z,0
2017-07-28T02:19:18.571Z,0
2017-07-28T02:20:18.420Z,0
2017-07-28T02:21:18.567Z,0
2017-07-28T02:22:18.455Z,0
2017-07-28T02:23:18.229Z,0
2017-07-28T02:24:18.439Z,0
2017-07-28T02:25:18.347Z,0
2017-07-28T02:26:18.337Z,0
2017-07-28T02:27:18.314Z,0
2017-07-28T02:28:18.308Z,0
2017-07-28T02:29:18.319Z,0
2017-07-28T02:30:18.254Z,0
2017-07-28T02:31:18.331Z,0
2017-07-28T02:32:18.144Z,0
2017-07-28T02:33:18.001Z,0
2017-07-28T02:34:18.258Z,0
2017-07-28T02:35:18.236Z,0
2017-07-28T02:36:18.240Z,0
2017-07-28T02:37:17.874Z,0
2017-07-28T02:38:18.036Z,0
2017-07-28T02:39:18.127Z,0
2017-07-28T02:40:18.085Z,0
2017-07-28T02:41:17.696Z,0
2017-07-28T02:42:18.037Z,0
2017-07-28T02:43:18.026Z,0
2017-07-28T02:44:18.042Z,0
2017-07-28T02:45:17.672Z,0
2017-07-28T02:46:17.940Z,0
2017-07-28T02:47:17.650Z,0
2017-07-28T02:48:17.811Z,0
2017-07-28T02:49:17.543Z,0
2017-07-28T02:50:17.631Z,0
2017-07-28T02:51:18.321Z,0
2017-07-28T02:52:17.740Z,0
2017-07-28T02:53:17.101Z,0
2017-07-28T02:54:17.450Z,0
2017-07-28T02:55:17.884Z,0
2017-07-28T02:56:17.544Z,0
2017-07-28T02:57:17.685Z,0
2017-07-28T02:58:17.356Z,0
2017-07-28T02:59:17.629Z,0
2017-07-28T03:00:17.713Z,0
2017-07-28T03:01:17.620Z,0
2017-07-28T03:02:17.566Z,0
2017-07-28T03:03:17.578Z,0
2017-07-28T03:04:17.217Z,4
2017-07-28T03:05:17.275Z,4
2017-07-28T03:06:17.454Z,4
2017-07-28T03:07:17.391Z,0
2017-07-28T03:08:17.462Z,4
2017-07-28T03:09:17.679Z,4
2017-07-28T03:10:16.816Z,4
2017-07-28T03:11:17.380Z,4
2017-07-28T03:12:17.483Z,4
2017-07-28T03:13:17.359Z,8
2017-07-28T03:14:17.418Z,8
2017-07-28T03:15:17.362Z,8
2017-07-28T03:16:17.017Z,8
2017-07-28T03:17:17.292Z,12
2017-07-28T03:18:17.344Z,16
2017-07-28T03:19:16.949Z,16
2017-07-28T03:20:17.141Z,16
2017-07-28T03:21:16.811Z,20
2017-07-28T03:22:17.048Z,24
2017-07-28T03:23:17.246Z,28
2017-07-28T03:24:17.137Z,36
2017-07-28T03:25:17.086Z,40
2017-07-28T03:26:16.966Z,44
2017-07-28T03:27:17.204Z,48
2017-07-28T03:28:17.107Z,52
2017-07-28T03:29:16.706Z,56
2017-07-28T03:30:17.161Z,60
2017-07-28T03:31:16.764Z,64
2017-07-28T03:32:16.678Z,68
2017-07-28T03:33:16.907Z,76
2017-07-28T03:34:16.962Z,80
2017-07-28T03:35:16.615Z,88
2017-07-28T03:36:16.863Z,92
2017-07-28T03:37:16.882Z,96
2017-07-28T03:38:16.547Z,104
2017-07-28T03:39:16.811Z,112
2017-07-28T03:40:16.721Z,120
2017-07-28T03:41:16.825Z,132
2017-07-28T03:42:16.781Z,140
2017-07-28T03:43:16.404Z,152
2017-07-28T03:44:16.530Z,164
2017-07-28T03:45:16.429Z,180
2017-07-28T03:46:16.706Z,196
2017-07-28T03:47:16.643Z,212
2017-07-28T03:48:16.607Z,228
2017-07-28T03:49:16.650Z,240
2017-07-28T03:50:16.665Z,256
2017-07-28T03:51:16.709Z,272
2017-07-28T03:52:16.500Z,296
2017-07-28T03:53:16.597Z,316
2017-07-28T03:54:16.583Z,332
2017-07-28T03:55:16.470Z,356
2017-07-28T03:56:16.193Z,384
2017-07-28T03:57:16.408Z,408
2017-07-28T03:58:16.387Z,440
2017-07-28T03:59:16.398Z,480
2017-07-28T04:00:16.460Z,524
2017-07-28T04:01:16.357Z,576
2017-07-28T04:02:16.435Z,632
2017-07-28T04:03:16.339Z,688
2017-07-28T04:04:16.320Z,748
2017-07-28T04:05:16.217Z,812
2017-07-28T04:06:16.249Z,904
2017-07-28T04:07:16.301Z,988
2017-07-28T04:08:16.279Z,1064
2017-07-28T04:09:15.811Z,1124
2017-07-28T04:10:16.164Z,1176
2017-07-28T04:11:16.157Z,1216
2017-07-28T04:12:16.152Z,1252
2017-07-28T04:13:16.206Z,1308
2017-07-28T04:14:16.159Z,1372
2017-07-28T04:15:15.974Z,1452
2017-07-28T04:16:16.106Z,1512
2017-07-28T04:17:16.247Z,1584
2017-07-28T04:18:15.595Z,1548
2017-07-28T04:19:15.601Z,1636
2017-07-28T04:20:15.907Z,1772
2017-07-28T04:21:15.451Z,2004
2017-07-28T04:22:15.533Z,2208
2017-07-28T04:23:15.717Z,2624
2017-07-28T04:24:15.950Z,2920
2017-07-28T04:25:15.621Z,2892
2017-07-28T04:26:15.858Z,2812
2017-07-28T04:27:15.543Z,2716
2017-07-28T04:28:15.239Z,2648
2017-07-28T04:29:15.860Z,2548
2017-07-28T04:30:15.854Z,2160
2017-07-28T04:31:15.755Z,1928
2017-07-28T04:32:15.694Z,1924
2017-07-28T04:33:15.596Z,1988
2017-07-28T04:34:15.579Z,2076
2017-07-28T04:35:15.644Z,2088
2017-07-28T04:36:15.693Z,2232
2017-07-28T04:37:15.649Z,2400
2017-07-28T04:38:15.626Z,2540
2017-07-28T04:39:15.532Z,2668
2017-07-28T04:40:15.300Z,2736
2017-07-28T04:41:15.413Z,2800
2017-07-28T04:42:15.634Z,2792
2017-07-28T04:43:15.290Z,2764
2017-07-28T04:44:15.531Z,2748
2017-07-28T04:45:15.175Z,2912
2017-07-28T04:46:15.508Z,3252
2017-07-28T04:47:15.507Z,2932
2017-07-28T04:48:15.285Z,2756
2017-07-28T04:49:15.390Z,2852
2017-07-28T04:50:15.275Z,3076
2017-07-28T04:51:15.369Z,3168
2017-07-28T04:52:14.997Z,3152
2017-07-28T04:53:15.312Z,3080
2017-07-28T04:54:15.395Z,2912
2017-07-28T04:55:15.297Z,2856
2017-07-28T04:56:14.775Z,2840
2017-07-28T04:57:15.110Z,2744
2017-07-28T04:58:14.689Z,2732
2017-07-28T04:59:14.878Z,2752
2017-07-28T05:00:14.484Z,2596
2017-07-28T05:01:14.840Z,2556
2017-07-28T05:02:15.030Z,2668
2017-07-28T05:03:15.064Z,2660
2017-07-28T05:04:15.116Z,2796
2017-07-28T05:05:14.709Z,3140
2017-07-28T05:06:14.777Z,3548
2017-07-28T05:07:15.055Z,3664
2017-07-28T05:08:14.770Z,4024
2017-07-28T05:09:14.925Z,5132
2017-07-28T05:10:14.930Z,5916
2017-07-28T05:11:14.638Z,6344
2017-07-28T05:12:14.337Z,6608
2017-07-28T05:13:14.946Z,6984
2017-07-28T05:14:14.852Z,7516
2017-07-28T05:15:14.513Z,8156
2017-07-28T05:16:14.590Z,6988
2017-07-28T05:17:14.413Z,5992
2017-07-28T05:18:14.674Z,5360
2017-07-28T05:19:14.777Z,5228
2017-07-28T05:20:14.711Z,4956
2017-07-28T05:21:14.764Z,4492
2017-07-28T05:22:14.689Z,4308
2017-07-28T05:23:14.662Z,3856
2017-07-28T05:24:14.395Z,3512
2017-07-28T05:25:14.684Z,3504
2017-07-28T05:26:14.705Z,3776
2017-07-28T05:27:14.617Z,4204
2017-07-28T05:28:14.639Z,4584
2017-07-28T05:29:14.599Z,5444
2017-07-28T05:30:14.523Z,8956
2017-07-28T05:31:14.532Z,12260
2017-07-28T05:32:14.544Z,13932
2017-07-28T05:33:14.217Z,13840
2017-07-28T05:34:14.381Z,16608
2017-07-28T05:35:14.011Z,17088
2017-07-28T05:36:14.342Z,10372
2017-07-28T05:37:13.729Z,7076
2017-07-28T05:38:14.359Z,5672
2017-07-28T05:39:14.424Z,5200
2017-07-28T05:40:14.197Z,5084
2017-07-28T05:41:14.293Z,5240
2017-07-28T05:42:13.964Z,5788
2017-07-28T05:43:13.733Z,7004
2017-07-28T05:44:14.250Z,15776
2017-07-28T05:45:13.289Z,14156
2017-07-28T05:46:13.944Z,13120
2017-07-28T05:47:14.176Z,13424
2017-07-28T05:48:14.173Z,10284
2017-07-28T05:49:14.217Z,11632
2017-07-28T05:50:14.170Z,10216
2017-07-28T05:51:14.143Z,16768
2017-07-28T05:52:14.107Z,9072
2017-07-28T05:53:13.519Z,9904
2017-07-28T05:54:13.962Z,14588
2017-07-28T05:55:14.113Z,19776
2017-07-28T05:56:14.069Z,18080
2017-07-28T05:57:13.677Z,18912
2017-07-28T05:58:13.927Z,10540
2017-07-28T05:59:14.079Z,13768
2017-07-28T06:00:13.555Z,10680
2017-07-28T06:01:13.858Z,12140
2017-07-28T06:02:13.916Z,7960
2017-07-28T06:03:13.617Z,10040
2017-07-28T06:04:13.312Z,10496
2017-07-28T06:05:13.768Z,13804
2017-07-28T06:06:13.798Z,22912
2017-07-28T06:07:13.950Z,22048
2017-07-28T06:08:13.844Z,24128
2017-07-28T06:09:13.945Z,14504
2017-07-28T06:10:13.692Z,22688
2017-07-28T06:11:13.828Z,22688
2017-07-28T06:12:13.424Z,23168
2017-07-28T06:13:13.731Z,21920
2017-07-28T06:14:13.452Z,22976
2017-07-28T06:15:13.623Z,21856
2017-07-28T06:16:13.250Z,23968
2017-07-28T06:17:13.760Z,23104
2017-07-28T06:18:13.665Z,24288
2017-07-28T06:19:13.790Z,24544
2017-07-28T06:20:13.292Z,25216
2017-07-28T06:21:13.443Z,26880
2017-07-28T06:22:13.588Z,25824
2017-07-28T06:23:13.515Z,18528
2017-07-28T06:24:13.582Z,30432
2017-07-28T06:25:13.573Z,29632
2017-07-28T06:26:13.184Z,31296
2017-07-28T06:27:13.420Z,17504
2017-07-28T06:28:13.519Z,31232
2017-07-28T06:29:13.445Z,24448
2017-07-28T06:30:27.338Z,20256
2017-07-28T06:31:13.491Z,13672
2017-07-28T06:32:27.103Z,33248
2017-07-28T06:33:13.406Z,31936
2017-07-28T06:34:12.772Z,34880
2017-07-28T06:35:13.394Z,35776
2017-07-28T06:36:12.848Z,16864
2017-07-28T06:37:13.353Z,17472
2017-07-28T06:38:13.167Z,20896
2017-07-28T06:39:13.099Z,36768
2017-07-28T06:40:12.931Z,21216
2017-07-28T06:41:13.204Z,13592
2017-07-28T06:42:12.966Z,14188
2017-07-28T06:43:13.001Z,14232
2017-07-28T06:44:13.332Z,14408
2017-07-28T06:45:13.083Z,17536
2017-07-28T06:46:13.310Z,24192
2017-07-28T06:47:13.282Z,25920
2017-07-28T06:48:13.279Z,13356
2017-07-28T06:49:12.829Z,17216
2017-07-28T06:50:12.883Z,21888
2017-07-28T06:51:13.192Z,23680
2017-07-28T06:52:12.836Z,19808
2017-07-28T06:53:13.048Z,14180
2017-07-28T06:54:13.191Z,11772
2017-07-28T06:55:13.039Z,14536
2017-07-28T06:56:13.118Z,15472
2017-07-28T06:57:12.719Z,19136
2017-07-28T06:58:13.058Z,32864
2017-07-28T06:59:12.857Z,13448
2017-07-28T07:00:12.176Z,18592
2017-07-28T07:01:12.579Z,20032
2017-07-28T07:02:13.030Z,17184
2017-07-28T07:03:12.835Z,20128
2017-07-28T07:04:12.560Z,22752
2017-07-28T07:05:12.924Z,23680
2017-07-28T07:06:12.207Z,20672
2017-07-28T07:07:12.831Z,21856
2017-07-28T07:08:12.890Z,19392
2017-07-28T07:09:12.859Z,14072
2017-07-28T07:10:12.849Z,14712
2017-07-28T07:11:12.754Z,12028
2017-07-28T07:12:12.895Z,11888
2017-07-28T07:13:12.452Z,12916
2017-07-28T07:14:12.771Z,11976
2017-07-28T07:15:12.322Z,11612
2017-07-28T07:16:12.721Z,11056
2017-07-28T07:17:12.332Z,12368
2017-07-28T07:18:12.709Z,11844
2017-07-28T07:19:12.340Z,12100
2017-07-28T07:20:12.395Z,16344
2017-07-28T07:21:12.740Z,13252
2017-07-28T07:22:12.735Z,14240
2017-07-28T07:23:12.615Z,15868
2017-07-28T07:24:12.625Z,16068
2017-07-28T07:25:12.651Z,14836
2017-07-28T07:26:12.508Z,14712
2017-07-28T07:27:12.567Z,17408
2017-07-28T07:28:12.446Z,15344
2017-07-28T07:29:12.187Z,12912
2017-07-28T07:30:12.539Z,14296
2017-07-28T07:31:12.598Z,13504
2017-07-28T07:32:12.537Z,17056
2017-07-28T07:33:12.379Z,22240
2017-07-28T07:34:12.375Z,15616
2017-07-28T07:35:12.429Z,13680
2017-07-28T07:36:12.363Z,21664
2017-07-28T07:37:12.134Z,22592
2017-07-28T07:38:12.259Z,21504
2017-07-28T07:39:12.387Z,17248
2017-07-28T07:40:12.347Z,22208
2017-07-28T07:41:12.079Z,23072
2017-07-28T07:42:12.229Z,15948
2017-07-28T07:43:12.180Z,13056
2017-07-28T07:44:11.625Z,14024
2017-07-28T07:45:12.183Z,19360
2017-07-28T07:46:11.920Z,21120
2017-07-28T07:47:12.229Z,16512
2017-07-28T07:48:12.217Z,11624
2017-07-28T07:49:12.229Z,9524
2017-07-28T07:50:12.052Z,11280
2017-07-28T07:51:11.810Z,12236
2017-07-28T07:52:11.764Z,9208
2017-07-28T07:53:11.861Z,11520
2017-07-28T07:54:12.185Z,14612
2017-07-28T07:55:11.707Z,15540
2017-07-28T07:56:12.079Z,17056
2017-07-28T07:57:11.787Z,16864
2017-07-28T07:58:11.726Z,18272
2017-07-28T07:59:11.780Z,35104
2017-07-28T08:00:11.511Z,25760
2017-07-28T08:01:11.827Z,36800
2017-07-28T08:02:11.644Z,25344
2017-07-28T08:03:11.886Z,20832
2017-07-28T08:04:11.869Z,23360
2017-07-28T08:05:11.883Z,22048
2017-07-28T08:06:11.662Z,19360
2017-07-28T08:07:11.922Z,21280
2017-07-28T08:08:11.831Z,18016
2017-07-28T08:09:11.740Z,17792
2017-07-28T08:10:11.849Z,19904
2017-07-28T08:11:11.894Z,17440
2017-07-28T08:12:11.763Z,16928
2017-07-28T08:13:11.449Z,11252
2017-07-28T08:14:11.716Z,8816
2017-07-28T08:15:11.709Z,10240
2017-07-28T08:16:11.654Z,13180
2017-07-28T08:17:11.606Z,16392
2017-07-28T08:18:11.704Z,17664
2017-07-28T08:19:11.378Z,14100
2017-07-28T08:20:11.565Z,17472
2017-07-28T08:21:11.332Z,17728
2017-07-28T08:22:11.195Z,19520
2017-07-28T08:23:11.684Z,18784
2017-07-28T08:24:11.513Z,15796
2017-07-28T08:25:11.498Z,10320
2017-07-28T08:26:11.441Z,10460
2017-07-28T08:27:11.172Z,12100
2017-07-28T08:28:11.704Z,13268
2017-07-28T08:29:11.728Z,14100
2017-07-28T08:30:11.477Z,17856
2017-07-28T08:31:11.416Z,18560
2017-07-28T08:32:11.094Z,22944
2017-07-28T08:33:11.429Z,24064
2017-07-28T08:34:11.386Z,12668
2017-07-28T08:35:11.318Z,22208
2017-07-28T08:36:11.335Z,32640
2017-07-28T08:37:11.260Z,23712
2017-07-28T08:38:10.902Z,22144
2017-07-28T08:39:11.359Z,18560
2017-07-28T08:40:10.998Z,20000
2017-07-28T08:41:11.041Z,34880
2017-07-28T08:42:11.263Z,28320
2017-07-28T08:43:11.174Z,31520
2017-07-28T08:44:11.218Z,31744
2017-07-28T08:45:11.129Z,32736
2017-07-28T08:46:10.822Z,21408
2017-07-28T08:47:11.157Z,17728
2017-07-28T08:48:11.130Z,21504
2017-07-28T08:49:11.130Z,26752
2017-07-28T08:50:10.860Z,30176
2017-07-28T08:51:10.955Z,27232
2017-07-28T08:52:10.426Z,27424
2017-07-28T08:53:10.904Z,24704
2017-07-28T08:54:11.071Z,22816
2017-07-28T08:55:10.966Z,21696
2017-07-28T08:56:11.060Z,23072
2017-07-28T08:57:10.371Z,16736
2017-07-28T08:58:10.626Z,17152
2017-07-28T08:59:10.889Z,15452
2017-07-28T09:00:10.848Z,20000
2017-07-28T09:01:10.951Z,20640
2017-07-28T09:02:10.904Z,18784
2017-07-28T09:03:10.674Z,21568
2017-07-28T09:04:10.819Z,21664
2017-07-28T09:05:10.749Z,16228
2017-07-28T09:06:10.782Z,17920
2017-07-28T09:07:10.855Z,15072
2017-07-28T09:08:10.610Z,17824
2017-07-28T09:09:10.421Z,39296
2017-07-28T09:10:10.493Z,76384
2017-07-28T09:11:10.456Z,47616
2017-07-28T09:12:10.765Z,24416
2017-07-28T09:13:10.654Z,31168
2017-07-28T09:14:10.745Z,20992
2017-07-28T09:15:10.726Z,17472
2017-07-28T09:16:10.657Z,16672
2017-07-28T09:17:10.642Z,22848
2017-07-28T09:18:10.709Z,21888
2017-07-28T09:19:10.961Z,59648
2017-07-28T09:20:10.525Z,23680
2017-07-28T09:21:10.669Z,63680
2017-07-28T09:22:10.080Z,24160
2017-07-28T09:23:10.604Z,16896
2017-07-28T09:24:10.531Z,18496
2017-07-28T09:25:10.232Z,18432
2017-07-28T09:26:10.568Z,23360
2017-07-28T09:27:10.375Z,37888
2017-07-28T09:28:10.190Z,45632
2017-07-28T09:29:10.261Z,26944
2017-07-28T09:30:10.449Z,37504
2017-07-28T09:31:10.515Z,30912
2017-07-28T09:32:10.435Z,23008
2017-07-28T09:33:10.501Z,14804
2017-07-28T09:34:10.392Z,24640
2017-07-28T09:35:10.369Z,25856
2017-07-28T09:36:10.112Z,22240
2017-07-28T09:37:10.420Z,80032
2017-07-28T09:38:10.313Z,33152
2017-07-28T09:39:10.373Z,17280
2017-07-28T09:40:10.238Z,8508
2017-07-28T09:41:10.218Z,9280
2017-07-28T09:42:10.272Z,12024
2017-07-28T09:43:10.266Z,12416
2017-07-28T09:44:09.882Z,13720
2017-07-28T09:45:10.220Z,13248
2017-07-28T09:46:10.235Z,11796
2017-07-28T09:47:10.292Z,11056
2017-07-28T09:48:10.248Z,18880
2017-07-28T09:49:10.104Z,81408
2017-07-28T09:50:09.838Z,86592
2017-07-28T09:51:09.643Z,96064
2017-07-28T09:52:10.047Z,36352
2017-07-28T09:53:10.162Z,40992
2017-07-28T09:54:10.141Z,32608
2017-07-28T09:55:10.208Z,58944
2017-07-28T09:56:10.002Z,24640
2017-07-28T09:57:09.994Z,30976
2017-07-28T09:58:09.983Z,28448
2017-07-28T09:59:09.940Z,24544
2017-07-28T10:00:09.974Z,21568
2017-07-28T10:01:09.549Z,24704
2017-07-28T10:02:09.952Z,14196
2017-07-28T10:03:09.557Z,32832
2017-07-28T10:04:09.728Z,32928
2017-07-28T10:05:10.010Z,64992
2017-07-28T10:06:09.993Z,87296
2017-07-28T10:07:09.658Z,76640
2017-07-28T10:08:09.843Z,64864
2017-07-28T10:09:09.546Z,24800
2017-07-28T10:10:09.924Z,29344
2017-07-28T10:11:09.581Z,90112
2017-07-28T10:12:09.872Z,83584
2017-07-28T10:13:09.555Z,81408
2017-07-28T10:14:09.646Z,85440
2017-07-28T10:15:09.873Z,83616
2017-07-28T10:16:09.833Z,80512
2017-07-28T10:17:09.904Z,77248
2017-07-28T10:18:09.309Z,82848
2017-07-28T10:19:09.492Z,78720
2017-07-28T10:20:09.864Z,83680
2017-07-28T10:21:09.767Z,40608
2017-07-28T10:22:09.813Z,90720
2017-07-28T10:23:09.815Z,90656
2017-07-28T10:24:09.554Z,93472
2017-07-28T10:25:09.383Z,92992
2017-07-28T10:26:09.838Z,98688
2017-07-28T10:27:09.508Z,103616
2017-07-28T10:28:09.795Z,30016
2017-07-28T10:29:08.972Z,99872
2017-07-28T10:30:09.444Z,94400
2017-07-28T10:31:09.303Z,87456
2017-07-28T10:32:08.941Z,82336
2017-07-28T10:33:09.770Z,83200
2017-07-28T10:34:09.326Z,86240
2017-07-28T10:35:09.475Z,85792
2017-07-28T10:36:09.275Z,19360
2017-07-28T10:37:09.467Z,22368
2017-07-28T10:38:09.107Z,61504
2017-07-28T10:39:09.329Z,80544
2017-07-28T10:40:09.685Z,23776
2017-07-28T10:41:09.659Z,15768
2017-07-28T10:42:09.648Z,78944
2017-07-28T10:43:09.514Z,68416
2017-07-28T10:44:08.986Z,19136
2017-07-28T10:45:09.484Z,106208
2017-07-28T10:46:09.600Z,100000
2017-07-28T10:47:09.185Z,98688
2017-07-28T10:48:09.076Z,37088
2017-07-28T10:49:09.383Z,31136
2017-07-28T10:50:09.464Z,41984
2017-07-28T10:51:09.603Z,95648
2017-07-28T10:52:09.489Z,21280
2017-07-28T10:53:09.525Z,20704
2017-07-28T10:54:09.480Z,16188
2017-07-28T10:55:09.380Z,16800
2017-07-28T10:56:09.457Z,13692
2017-07-28T10:57:09.306Z,10556
2017-07-28T10:58:09.501Z,8100
2017-07-28T10:59:09.485Z,6540
2017-07-28T11:00:09.448Z,5256
2017-07-28T11:01:09.429Z,4432
2017-07-28T11:02:09.461Z,3512
2017-07-28T11:03:09.419Z,3292
2017-07-28T11:04:09.340Z,4988
2017-07-28T11:05:09.359Z,10536
2017-07-28T11:06:09.303Z,15916
2017-07-28T11:07:09.455Z,19808
2017-07-28T11:08:09.345Z,23904
2017-07-28T11:09:09.495Z,23520
2017-07-28T11:10:09.012Z,25216
2017-07-28T11:11:09.390Z,24096
2017-07-28T11:12:09.062Z,21280
2017-07-28T11:13:09.341Z,20032
2017-07-28T11:14:09.163Z,22656
2017-07-28T11:15:09.341Z,23392
2017-07-28T11:16:09.309Z,24320
2017-07-28T11:17:09.281Z,22816
2017-07-28T11:18:09.275Z,23168
2017-07-28T11:19:09.243Z,20896
2017-07-28T11:20:08.975Z,22432
2017-07-28T11:21:08.658Z,23360
2017-07-28T11:22:09.139Z,21760
2017-07-28T11:23:09.198Z,20512
2017-07-28T11:24:09.089Z,19968
2017-07-28T11:25:08.775Z,22496
2017-07-28T11:26:08.996Z,19936
2017-07-28T11:27:09.099Z,17216
2017-07-28T11:28:09.089Z,12628
2017-07-28T11:29:09.001Z,9956
2017-07-28T11:30:09.095Z,7624
2017-07-28T11:31:08.994Z,5928
2017-07-28T11:32:08.368Z,5252
2017-07-28T11:33:09.106Z,4728
2017-07-28T11:34:08.760Z,6108
2017-07-28T11:35:08.967Z,6920
2017-07-28T11:36:08.912Z,6856
2017-07-28T11:37:08.671Z,6280
2017-07-28T11:38:08.886Z,5996
2017-07-28T11:39:08.810Z,5756
2017-07-28T11:40:08.511Z,5832
2017-07-28T11:41:08.857Z,5960
2017-07-28T11:42:08.932Z,5008
2017-07-28T11:43:08.783Z,2920
2017-07-28T11:44:08.830Z,2080
2017-07-28T11:45:08.767Z,2312
2017-07-28T11:46:08.777Z,2772
2017-07-28T11:47:08.753Z,3156
2017-07-28T11:48:08.746Z,4316
2017-07-28T11:49:08.401Z,6008
2017-07-28T11:50:08.478Z,6964
2017-07-28T11:51:08.782Z,7924
2017-07-28T11:52:08.682Z,8228
2017-07-28T11:53:08.364Z,8460
2017-07-28T11:54:08.386Z,9832
2017-07-28T11:55:08.431Z,10680
2017-07-28T11:56:08.596Z,10456
2017-07-28T11:57:08.492Z,9780
2017-07-28T11:58:08.630Z,9576
2017-07-28T11:59:08.042Z,10424
2017-07-28T12:00:08.569Z,14148
2017-07-28T12:01:08.510Z,19648
2017-07-28T12:02:08.386Z,22656
2017-07-28T12:03:08.548Z,23296
2017-07-28T12:04:08.486Z,24640
2017-07-28T12:05:08.459Z,22880
2017-07-28T12:06:08.216Z,21312
2017-07-28T12:07:08.418Z,19424
2017-07-28T12:08:08.226Z,17920
2017-07-28T12:09:08.414Z,15624
2017-07-28T12:10:08.307Z,13304
2017-07-28T12:11:08.054Z,13040
2017-07-28T12:12:08.233Z,14064
2017-07-28T12:13:08.239Z,15336
2017-07-28T12:14:08.186Z,17248
2017-07-28T12:15:07.919Z,19104
2017-07-28T12:16:07.582Z,21600
2017-07-28T12:17:07.988Z,21856
2017-07-28T12:18:07.916Z,21888
2017-07-28T12:19:07.954Z,20832
2017-07-28T12:20:08.111Z,18752
2017-07-28T12:21:07.900Z,17824
2017-07-28T12:22:07.738Z,18496
2017-07-28T12:23:07.723Z,19424
2017-07-28T12:24:08.064Z,19712
2017-07-28T12:25:08.038Z,21120
2017-07-28T12:26:08.069Z,23936
2017-07-28T12:27:07.972Z,23104
2017-07-28T12:28:08.145Z,21248
2017-07-28T12:29:08.001Z,20096
2017-07-28T12:30:07.930Z,19808
2017-07-28T12:31:07.995Z,16324
2017-07-28T12:32:07.882Z,13640
2017-07-28T12:33:07.505Z,11728
2017-07-28T12:34:07.606Z,9620
2017-07-28T12:35:08.020Z,8996
2017-07-28T12:36:07.475Z,8492
2017-07-28T12:37:07.873Z,9480
2017-07-28T12:38:07.946Z,9540
2017-07-28T12:39:07.836Z,11128
2017-07-28T12:40:07.816Z,14792
2017-07-28T12:41:07.810Z,13664
2017-07-28T12:42:07.853Z,16212
2017-07-28T12:43:07.751Z,14456
2017-07-28T12:45:08.310Z,14000
2017-07-28T12:46:08.273Z,15204
2017-07-28T12:47:08.235Z,15200
2017-07-28T12:48:07.612Z,12592
2017-07-28T12:49:07.621Z,14328
2017-07-28T12:50:07.638Z,18240
2017-07-28T12:51:07.527Z,18016
2017-07-28T12:52:07.355Z,20160
2017-07-28T12:53:07.397Z,16276
2017-07-28T12:54:07.692Z,15100
2017-07-28T12:55:07.529Z,17216
2017-07-28T12:56:07.805Z,16992
2017-07-28T12:57:07.586Z,15604
2017-07-28T12:58:07.045Z,13000
2017-07-28T12:59:07.493Z,12656
2017-07-28T13:00:07.399Z,10404
2017-07-28T13:01:07.486Z,7948
2017-07-28T13:02:07.539Z,6984
2017-07-28T13:03:07.345Z,5892
2017-07-28T13:04:07.381Z,5200
2017-07-28T13:05:07.052Z,4884
2017-07-28T13:06:06.951Z,4220
2017-07-28T13:07:07.321Z,3844
2017-07-28T13:08:07.572Z,4408
2017-07-28T13:09:07.081Z,4472
2017-07-28T13:10:07.405Z,5584
2017-07-28T13:11:07.253Z,7848
2017-07-28T13:12:06.473Z,9948
2017-07-28T13:13:06.945Z,12488
2017-07-28T13:14:07.177Z,14704
2017-07-28T13:15:07.215Z,18656
2017-07-28T13:16:06.892Z,19712
2017-07-28T13:17:07.232Z,17120
2017-07-28T13:18:06.750Z,13320
2017-07-28T13:19:06.763Z,10504
2017-07-28T13:20:06.838Z,9624
2017-07-28T13:21:07.075Z,9652
2017-07-28T13:22:07.218Z,9096
2017-07-28T13:23:07.318Z,7968
2017-07-28T13:24:07.117Z,7480
2017-07-28T13:25:07.082Z,8008
2017-07-28T13:26:06.978Z,8360
2017-07-28T13:27:07.107Z,11196
2017-07-28T13:28:06.822Z,15564